Wilson Lista — 8PRW — position and weather

sailwx.info

Track history (hours):
 
Tides and Currents Weather Stations Pressure Air Temp Water Temp Dewpoint Dewpoint Depression Visibility Wind Speed Wind Dir Waves Ship Positions

Wilson Lista

Last reported at 2014-Aug-26 23:34 UTC. Time now 2014-Aug-28 09:25 UTC.
Position N 63°29' E 010°11'.

Length 88 m; draft 5.2 m.

Type: Cargo ship. MMSI: 314188000.

Date/timePositionNaut miles runAvg speedWind from/ knotsBaromVisibWave heightAir tempDewpointWater temp
2014-Aug-26 23:34N 63°29' E 010°11'1010.1
2014-Aug-26 22:33N 63°35' E 010°30'29 1.6
2014-Aug-26 04:27N 63°59' E 011°06'0 0.0
2014-Aug-25 07:33N 63°59' E 011°06'0 0.0
2014-Aug-24 17:21N 63°59' E 011°06'28 1.4
2014-Aug-23 21:28N 63°35' E 010°33'910.4
2014-Aug-23 20:33N 63°28' E 010°20'  
2014-Aug-21 08:33N 59°15' W 003°39'9 9.1
2014-Aug-21 07:33N 59°10' W 003°53'9 9.2
2014-Aug-21 06:33N 59°04' W 004°06'9 9.2
2014-Aug-21 05:33N 58°58' W 004°20'58 9.1
2014-Aug-20 23:07N 58°15' W 005°35'146 8.6
2014-Aug-20 06:04N 55°55' W 006°55'5 8.3
2014-Aug-20 05:29N 55°51' W 006°51'7 8.0
2014-Aug-20 04:34N 55°44' W 006°44'7 7.1
2014-Aug-20 03:34N 55°38' W 006°37'8 7.8
2014-Aug-20 02:34N 55°33' W 006°27'9 8.6
2014-Aug-20 01:34N 55°27' W 006°16'9 9.1
2014-Aug-20 00:33N 55°23' W 006°01'1010.2
2014-Aug-19 23:34N 55°15' W 005°52'2110.3
2014-Aug-19 21:30N 54°56' W 005°35'910.0
2014-Aug-19 20:34N 54°48' W 005°27'9 9.5
2014-Aug-19 19:34N 54°39' W 005°20'9 9.1
2014-Aug-19 18:31N 54°30' W 005°17'8 8.8
2014-Aug-19 17:34N 54°22' W 005°16'120 9.2
2014-Aug-19 04:33N 52°23' W 005°51'2110.1
2014-Aug-19 02:31N 52°05' W 006°05'1010.2
2014-Aug-19 01:29N 52°01' W 006°21'1410.0
2014-Aug-19 00:07N 51°57' W 006°42'6 9.6
2014-Aug-18 23:31N 51°56' W 006°51'11 9.4
2014-Aug-18 22:19N 51°53' W 007°09'7 9.4
2014-Aug-18 21:33N 51°52' W 007°21'9 9.4
2014-Aug-18 20:33N 51°49' W 007°35'10 9.7
2014-Aug-18 19:34N 51°47' W 007°51'10 9.9
2014-Aug-18 18:33N 51°45' W 008°06'8 7.9
2014-Aug-18 17:33N 51°50' W 008°16'3 3.0
2014-Aug-18 16:32N 51°52' W 008°20'0 0.0
2014-Aug-18 15:32N 51°52' W 008°20'0 0.0
2014-Aug-18 14:31N 51°52' W 008°20'0 0.0
2014-Aug-18 13:31N 51°52' W 008°20'0 0.0
2014-Aug-18 12:31N 51°52' W 008°20'0 0.0
2014-Aug-18 11:33N 51°52' W 008°20'0 0.0
2014-Aug-18 10:33N 51°52' W 008°20'0 0.0
2014-Aug-18 09:32N 51°52' W 008°20'0 0.0
2014-Aug-18 08:32N 51°52' W 008°20'0 0.0
2014-Aug-18 07:31N 51°52' W 008°20'0 0.0
2014-Aug-18 06:31N 51°52' W 008°20'0 0.0
2014-Aug-18 05:33N 51°52' W 008°20'0 0.0
2014-Aug-18 04:33N 51°52' W 008°20'0 0.0
2014-Aug-18 03:33N 51°52' W 008°20'0 0.0
2014-Aug-18 02:32N 51°52' W 008°20'0 0.0
2014-Aug-18 01:32N 51°52' W 008°20'0 0.0
2014-Aug-18 00:28N 51°52' W 008°20'0 0.0
2014-Aug-17 18:32N 51°52' W 008°20'0 0.0
2014-Aug-17 17:31N 51°52' W 008°20'0 0.0
2014-Aug-17 16:31N 51°52' W 008°20'0 0.0
2014-Aug-17 15:33N 51°52' W 008°20'0 0.0
2014-Aug-17 14:33N 51°52' W 008°20'0 0.0
2014-Aug-17 13:33N 51°52' W 008°20'0 0.0
2014-Aug-17 12:29N 51°52' W 008°20'0 0.0
2014-Aug-17 11:32N 51°52' W 008°20'0 0.0
2014-Aug-17 10:28N 51°52' W 008°20'0 0.0
2014-Aug-17 09:33N 51°52' W 008°20'1 1.4
2014-Aug-17 08:34N 51°51' W 008°20'2 2.1
2014-Aug-17 07:28N 51°51' W 008°16'0 0.0
2014-Aug-17 06:31N 51°51' W 008°16'0 0.0
2014-Aug-17 05:32N 51°51' W 008°16'0 0.0
2014-Aug-17 04:33N 51°51' W 008°16'0 0.0
2014-Aug-17 03:33N 51°51' W 008°16'0 0.0
2014-Aug-17 02:32N 51°51' W 008°16'0 0.0
2014-Aug-17 01:32N 51°51' W 008°16'0 0.0
2014-Aug-17 00:31N 51°51' W 008°16'  
Track history (hours):
 
Tides and Currents Weather Stations Pressure Air Temp Water Temp Dewpoint Dewpoint Depression Visibility Wind Speed Wind Dir Waves Ship Positions

Wilson Lista

Last reported at 2014-Aug-26 23:34 UTC. Time now 2014-Aug-28 09:25 UTC.
Position N 63°29' E 010°11'.

Length 88 m; draft 5.2 m.

Type: Cargo ship. MMSI: 314188000.

Date/timePositionNaut miles runAvg speedWind from/ knotsBaromVisibWave heightAir tempDewpointWater temp
2014-Aug-26 23:34N 63°29' E 010°11'1010.1
2014-Aug-26 22:33N 63°35' E 010°30'29 1.6
2014-Aug-26 04:27N 63°59' E 011°06'0 0.0
2014-Aug-25 07:33N 63°59' E 011°06'0 0.0
2014-Aug-24 17:21N 63°59' E 011°06'28 1.4
2014-Aug-23 21:28N 63°35' E 010°33'910.4
2014-Aug-23 20:33N 63°28' E 010°20'  
2014-Aug-21 08:33N 59°15' W 003°39'9 9.1
2014-Aug-21 07:33N 59°10' W 003°53'9 9.2
2014-Aug-21 06:33N 59°04' W 004°06'9 9.2
2014-Aug-21 05:33N 58°58' W 004°20'58 9.1
2014-Aug-20 23:07N 58°15' W 005°35'146 8.6
2014-Aug-20 06:04N 55°55' W 006°55'5 8.3
2014-Aug-20 05:29N 55°51' W 006°51'7 8.0
2014-Aug-20 04:34N 55°44' W 006°44'7 7.1
2014-Aug-20 03:34N 55°38' W 006°37'8 7.8
2014-Aug-20 02:34N 55°33' W 006°27'9 8.6
2014-Aug-20 01:34N 55°27' W 006°16'9 9.1
2014-Aug-20 00:33N 55°23' W 006°01'1010.2
2014-Aug-19 23:34N 55°15' W 005°52'2110.3
2014-Aug-19 21:30N 54°56' W 005°35'910.0
2014-Aug-19 20:34N 54°48' W 005°27'9 9.5
2014-Aug-19 19:34N 54°39' W 005°20'9 9.1
2014-Aug-19 18:31N 54°30' W 005°17'8 8.8
2014-Aug-19 17:34N 54°22' W 005°16'120 9.2
2014-Aug-19 04:33N 52°23' W 005°51'2110.1
2014-Aug-19 02:31N 52°05' W 006°05'1010.2
2014-Aug-19 01:29N 52°01' W 006°21'1410.0
2014-Aug-19 00:07N 51°57' W 006°42'6 9.6
2014-Aug-18 23:31N 51°56' W 006°51'11 9.4
2014-Aug-18 22:19N 51°53' W 007°09'7 9.4
2014-Aug-18 21:33N 51°52' W 007°21'9 9.4
2014-Aug-18 20:33N 51°49' W 007°35'10 9.7
2014-Aug-18 19:34N 51°47' W 007°51'10 9.9
2014-Aug-18 18:33N 51°45' W 008°06'8 7.9
2014-Aug-18 17:33N 51°50' W 008°16'3 3.0
2014-Aug-18 16:32N 51°52' W 008°20'0 0.0
2014-Aug-18 15:32N 51°52' W 008°20'0 0.0
2014-Aug-18 14:31N 51°52' W 008°20'0 0.0
2014-Aug-18 13:31N 51°52' W 008°20'0 0.0
2014-Aug-18 12:31N 51°52' W 008°20'0 0.0
2014-Aug-18 11:33N 51°52' W 008°20'0 0.0
2014-Aug-18 10:33N 51°52' W 008°20'0 0.0
2014-Aug-18 09:32N 51°52' W 008°20'0 0.0
2014-Aug-18 08:32N 51°52' W 008°20'0 0.0
2014-Aug-18 07:31N 51°52' W 008°20'0 0.0
2014-Aug-18 06:31N 51°52' W 008°20'0 0.0
2014-Aug-18 05:33N 51°52' W 008°20'0 0.0
2014-Aug-18 04:33N 51°52' W 008°20'0 0.0
2014-Aug-18 03:33N 51°52' W 008°20'0 0.0
2014-Aug-18 02:32N 51°52' W 008°20'0 0.0
2014-Aug-18 01:32N 51°52' W 008°20'0 0.0
2014-Aug-18 00:28N 51°52' W 008°20'0 0.0
2014-Aug-17 18:32N 51°52' W 008°20'0 0.0
2014-Aug-17 17:31N 51°52' W 008°20'0 0.0
2014-Aug-17 16:31N 51°52' W 008°20'0 0.0
2014-Aug-17 15:33N 51°52' W 008°20'0 0.0
2014-Aug-17 14:33N 51°52' W 008°20'0 0.0
2014-Aug-17 13:33N 51°52' W 008°20'0 0.0
2014-Aug-17 12:29N 51°52' W 008°20'0 0.0
2014-Aug-17 11:32N 51°52' W 008°20'0 0.0
2014-Aug-17 10:28N 51°52' W 008°20'0 0.0
2014-Aug-17 09:33N 51°52' W 008°20'1 1.4
2014-Aug-17 08:34N 51°51' W 008°20'2 2.1
2014-Aug-17 07:28N 51°51' W 008°16'0 0.0
2014-Aug-17 06:31N 51°51' W 008°16'0 0.0
2014-Aug-17 05:32N 51°51' W 008°16'0 0.0
2014-Aug-17 04:33N 51°51' W 008°16'0 0.0
2014-Aug-17 03:33N 51°51' W 008°16'0 0.0
2014-Aug-17 02:32N 51°51' W 008°16'0 0.0
2014-Aug-17 01:32N 51°51' W 008°16'0 0.0
2014-Aug-17 00:31N 51°51' W 008°16'  

Dump ship's entire track history